createdAt,value
2019-05-16T00:00:22.306Z,6.13
2019-05-16T00:02:50.975Z,3.80
2019-05-16T00:05:20.158Z,1.67
2019-05-16T00:07:49.338Z,2.77
2019-05-16T00:10:18.717Z,4.83
2019-05-16T00:12:48.605Z,3.63
2019-05-16T00:15:18.302Z,4.87
2019-05-16T00:17:48.796Z,2.60
2019-05-16T00:20:19.105Z,1.83
2019-05-16T00:22:48.589Z,3.53
2019-05-16T00:25:18.006Z,5.33
2019-05-16T00:27:47.980Z,3.87
2019-05-16T00:30:18.150Z,5.40
2019-05-16T00:32:48.173Z,4.30
2019-05-16T00:35:18.278Z,2.87
2019-05-16T00:37:48.367Z,4.00
2019-05-16T00:40:18.803Z,1.87
2019-05-16T00:42:49.270Z,6.07
2019-05-16T00:45:18.661Z,6.07
2019-05-16T00:47:48.069Z,3.10
2019-05-16T00:50:18.383Z,3.37
2019-05-16T00:52:48.709Z,3.20
2019-05-16T00:55:18.073Z,4.57
2019-05-16T00:57:48.253Z,6.57
2019-05-16T01:00:18.510Z,7.43
2019-05-16T01:02:48.559Z,4.27
2019-05-16T01:05:19.116Z,3.20
2019-05-16T01:07:48.179Z,6.20
2019-05-16T01:10:18.341Z,4.70
2019-05-16T01:12:48.058Z,9.30
2019-05-16T01:15:18.351Z,4.80
2019-05-16T01:17:48.452Z,7.50
2019-05-16T01:20:19.205Z,9.57
2019-05-16T01:22:49.069Z,6.50
2019-05-16T01:25:19.528Z,6.23
2019-05-16T01:27:48.346Z,4.10
2019-05-16T01:30:18.630Z,5.83
2019-05-16T01:32:49.152Z,3.40
2019-05-16T01:35:18.877Z,7.70
2019-05-16T01:37:48.928Z,4.80
2019-05-16T01:40:18.897Z,4.30
2019-05-16T01:42:49.014Z,11.30
2019-05-16T01:45:18.872Z,3.73
2019-05-16T01:47:48.199Z,8.10
2019-05-16T01:50:18.116Z,4.70
2019-05-16T01:52:48.722Z,4.37
2019-05-16T01:55:18.706Z,2.27
2019-05-16T01:57:48.220Z,4.70
2019-05-16T02:00:23.587Z,7.70
2019-05-16T02:02:48.810Z,3.07
2019-05-16T02:05:18.786Z,3.53
2019-05-16T02:07:48.195Z,7.53
2019-05-16T02:10:18.086Z,4.13
2019-05-16T02:12:49.029Z,3.17
2019-05-16T02:15:18.205Z,4.03
2019-05-16T02:17:48.575Z,5.40
2019-05-16T02:20:18.161Z,5.07
2019-05-16T02:22:48.166Z,6.20
2019-05-16T02:25:18.509Z,3.60
2019-05-16T02:27:48.842Z,11.23
2019-05-16T02:30:21.320Z,3.93
2019-05-16T02:32:51.891Z,4.63
2019-05-16T02:35:21.046Z,7.03
2019-05-16T02:37:54.706Z,3.47
2019-05-16T02:40:22.323Z,4.80
2019-05-16T02:42:51.628Z,4.30
2019-05-16T02:45:24.468Z,10.93
2019-05-16T02:47:51.734Z,3.30
2019-05-16T02:50:22.341Z,6.13
2019-05-16T02:52:51.775Z,7.30
2019-05-16T02:55:21.624Z,6.27
2019-05-16T02:57:51.029Z,12.00
2019-05-16T03:00:22.733Z,5.00
2019-05-16T03:02:51.586Z,6.83
2019-05-16T03:05:20.969Z,9.03
2019-05-16T03:07:52.069Z,4.93
2019-05-16T03:10:20.533Z,3.87
2019-05-16T03:12:52.074Z,5.33
2019-05-16T03:15:21.843Z,4.00
2019-05-16T03:17:53.006Z,8.30
2019-05-16T03:20:25.079Z,6.40
2019-05-16T03:22:55.118Z,6.03
2019-05-16T03:25:23.689Z,3.77
2019-05-16T03:27:52.403Z,10.13
2019-05-16T03:30:23.565Z,6.23
2019-05-16T03:32:54.764Z,4.87
2019-05-16T03:35:24.513Z,7.47
2019-05-16T03:37:59.635Z,3.53
2019-05-16T03:40:25.235Z,7.83
2019-05-16T03:42:54.321Z,3.33
2019-05-16T03:45:23.058Z,4.90
2019-05-16T03:47:51.851Z,4.97
2019-05-16T03:50:21.840Z,4.27
2019-05-16T03:52:51.063Z,7.73
2019-05-16T03:55:21.376Z,4.20
2019-05-16T03:57:51.644Z,4.77
2019-05-16T04:00:23.420Z,4.00
2019-05-16T04:02:52.439Z,6.90
2019-05-16T04:05:21.488Z,4.40
2019-05-16T04:07:53.119Z,2.80
2019-05-16T04:10:21.655Z,3.53
2019-05-16T04:12:51.334Z,4.67
2019-05-16T04:15:21.445Z,7.13
2019-05-16T04:17:51.246Z,6.47
2019-05-16T04:20:21.517Z,2.63
2019-05-16T04:22:51.332Z,3.90
2019-05-16T04:25:21.699Z,4.47
2019-05-16T04:27:50.477Z,3.60
2019-05-16T04:30:21.949Z,2.97
2019-05-16T04:32:51.008Z,3.30
2019-05-16T04:35:21.506Z,3.10
2019-05-16T04:37:51.338Z,3.33
2019-05-16T04:40:21.902Z,2.53
2019-05-16T04:42:51.345Z,4.10
2019-05-16T04:45:21.076Z,4.73
2019-05-16T04:47:52.541Z,5.37
2019-05-16T04:50:21.737Z,3.73
2019-05-16T04:52:51.789Z,4.87
2019-05-16T04:55:42.254Z,3.47
2019-05-16T04:58:11.454Z,3.23
2019-05-16T05:00:42.287Z,3.03
2019-05-16T05:03:12.163Z,2.70
2019-05-16T05:05:41.482Z,3.07
2019-05-16T05:08:11.049Z,10.13
2019-05-16T05:10:40.642Z,3.80
2019-05-16T05:13:11.019Z,3.43
2019-05-16T05:15:40.247Z,4.70
2019-05-16T05:18:10.134Z,3.10
2019-05-16T05:20:41.024Z,5.20
2019-05-16T05:23:09.880Z,9.27
2019-05-16T05:25:40.465Z,4.47
2019-05-16T05:28:10.026Z,5.20
2019-05-16T05:30:40.791Z,7.20
2019-05-16T05:33:10.131Z,6.00
2019-05-16T05:35:40.835Z,5.53
2019-05-16T05:38:10.519Z,4.73
2019-05-16T05:40:40.442Z,4.67
2019-05-16T05:43:10.600Z,4.43
2019-05-16T05:45:40.174Z,4.60
2019-05-16T05:48:10.689Z,3.93
2019-05-16T05:50:40.157Z,6.40
2019-05-16T05:53:10.198Z,3.53
2019-05-16T05:55:40.526Z,3.97
2019-05-16T05:58:10.073Z,3.93
2019-05-16T06:00:40.567Z,5.13
2019-05-16T06:03:10.705Z,5.63
2019-05-16T06:05:41.264Z,5.10
2019-05-16T06:08:10.652Z,6.30
2019-05-16T06:10:40.552Z,4.00
2019-05-16T06:13:11.077Z,4.03
2019-05-16T06:15:40.043Z,5.50
2019-05-16T06:18:10.798Z,7.00
2019-05-16T06:20:40.111Z,4.60
2019-05-16T06:23:10.606Z,6.73
2019-05-16T06:25:40.543Z,9.13
2019-05-16T06:28:10.573Z,5.80
2019-05-16T06:30:40.699Z,5.70
2019-05-16T06:33:10.217Z,7.03
2019-05-16T06:35:40.212Z,8.87
2019-05-16T06:38:09.991Z,7.80
2019-05-16T06:40:40.187Z,5.67
2019-05-16T06:43:10.934Z,6.00
2019-05-16T06:45:40.216Z,5.90
2019-05-16T06:48:10.044Z,7.13
2019-05-16T06:50:40.217Z,8.83
2019-05-16T06:53:10.437Z,6.47
2019-05-16T06:55:40.119Z,7.90
2019-05-16T06:58:10.607Z,9.73
2019-05-16T07:00:40.632Z,6.70
2019-05-16T07:03:12.430Z,5.80
2019-05-16T07:05:40.641Z,6.23
2019-05-16T07:08:10.421Z,7.97
2019-05-16T07:10:39.789Z,8.67
2019-05-16T07:13:10.345Z,12.00
2019-05-16T07:15:40.187Z,7.57
2019-05-16T07:18:12.954Z,6.20
2019-05-16T07:20:40.017Z,7.13
2019-05-16T07:23:10.120Z,9.03
2019-05-16T07:25:40.707Z,10.57
2019-05-16T07:28:10.250Z,6.27
2019-05-16T07:30:40.787Z,6.20
2019-05-16T07:33:09.889Z,6.00
2019-05-16T07:35:40.140Z,7.20
2019-05-16T07:38:10.714Z,5.97
2019-05-16T07:40:40.109Z,5.47
2019-05-16T07:43:10.705Z,4.90
2019-05-16T07:45:40.743Z,9.17
2019-05-16T07:48:10.754Z,6.30
2019-05-16T07:50:40.504Z,6.90
2019-05-16T07:53:10.625Z,4.67
2019-05-16T07:55:40.041Z,4.90
2019-05-16T07:58:10.251Z,5.93
2019-05-16T08:00:51.988Z,4.90
2019-05-16T08:03:10.543Z,5.00
2019-05-16T08:05:41.230Z,6.57
2019-05-16T08:08:10.607Z,4.90
2019-05-16T08:10:45.601Z,6.50
2019-05-16T08:13:12.153Z,6.47
2019-05-16T08:15:40.757Z,4.70
2019-05-16T08:18:11.042Z,4.93
2019-05-16T08:20:41.731Z,5.20
2019-05-16T08:23:11.197Z,5.53
2019-05-16T08:25:41.272Z,6.10
2019-05-16T08:28:11.708Z,4.40
2019-05-16T08:33:13.615Z,4.20
2019-05-16T08:35:41.677Z,5.83
2019-05-16T08:38:13.570Z,9.57
2019-05-16T08:41:04.689Z,5.63
2019-05-16T08:43:11.966Z,5.00
2019-05-16T08:45:41.842Z,4.77
2019-05-16T08:48:11.527Z,7.73
2019-05-16T08:50:42.106Z,4.33
2019-05-16T08:53:12.913Z,3.97
2019-05-16T08:55:43.359Z,5.57
2019-05-16T09:00:42.450Z,5.77
2019-05-16T09:03:12.372Z,4.27
2019-05-16T09:05:42.829Z,5.60
2019-05-16T09:08:11.801Z,4.83
2019-05-16T09:10:34.678Z,4.87
2019-05-16T09:10:40.529Z,4.23
2019-05-16T09:10:51.473Z,5.23
2019-05-16T09:13:11.186Z,3.83
2019-05-16T09:15:39.897Z,4.23
2019-05-16T09:18:08.613Z,6.33
2019-05-16T09:20:40.305Z,6.80
2019-05-16T09:23:07.874Z,4.30
2019-05-16T09:25:36.947Z,5.80
2019-05-16T09:28:07.438Z,4.40
2019-05-16T09:30:37.088Z,3.13
2019-05-16T09:33:07.087Z,7.83
2019-05-16T09:35:37.447Z,3.90
2019-05-16T09:38:08.939Z,6.73
2019-05-16T09:40:38.889Z,9.40
2019-05-16T09:43:07.987Z,4.83
2019-05-16T09:45:38.002Z,4.40
2019-05-16T09:48:08.113Z,7.50
2019-05-16T09:50:37.919Z,4.60
2019-05-16T09:53:07.217Z,5.60
2019-05-16T09:55:37.501Z,7.17
2019-05-16T09:58:08.986Z,5.60
2019-05-16T10:00:37.834Z,5.70
2019-05-16T10:03:07.227Z,5.43
2019-05-16T10:05:38.750Z,4.20
2019-05-16T10:08:07.569Z,3.50
2019-05-16T10:10:39.029Z,5.00
2019-05-16T10:13:08.053Z,4.43
2019-05-16T10:15:37.713Z,4.57
2019-05-16T10:18:07.567Z,3.43
2019-05-16T10:20:36.751Z,3.47
2019-05-16T10:23:14.388Z,3.40
2019-05-16T10:25:38.792Z,4.13
2019-05-16T10:28:07.816Z,3.50
2019-05-16T10:30:37.657Z,2.90
2019-05-16T10:33:07.195Z,7.23
2019-05-16T10:35:37.575Z,3.20
2019-05-16T10:38:09.228Z,3.47
2019-05-16T10:40:37.943Z,10.93
2019-05-16T10:43:07.473Z,2.40
2019-05-16T10:45:39.197Z,4.43
2019-05-16T10:48:07.972Z,2.60
2019-05-16T10:50:37.065Z,3.23
2019-05-16T10:53:25.785Z,2.97
2019-05-16T10:55:39.345Z,3.10
2019-05-16T10:58:08.164Z,3.07
2019-05-16T11:01:05.211Z,2.70
2019-05-16T11:03:07.327Z,2.83
2019-05-16T11:05:39.593Z,2.70
2019-05-16T11:08:08.903Z,3.37
2019-05-16T11:10:37.703Z,3.37
2019-05-16T11:13:08.160Z,3.53
2019-05-16T11:15:37.471Z,2.77
2019-05-16T11:18:09.355Z,3.03
2019-05-16T11:20:38.030Z,2.80
2019-05-16T11:23:08.007Z,3.63
2019-05-16T11:25:36.886Z,5.70
2019-05-16T11:28:07.364Z,3.80
2019-05-16T11:30:39.117Z,2.93
2019-05-16T11:33:07.850Z,5.50
2019-05-16T11:35:38.066Z,3.77
2019-05-16T11:38:07.485Z,2.83
2019-05-16T11:40:36.358Z,2.73
2019-05-16T11:43:15.712Z,2.80
2019-05-16T11:45:36.964Z,2.90
2019-05-16T11:48:05.683Z,2.90
2019-05-16T11:50:37.073Z,3.03
2019-05-16T11:53:07.227Z,3.67
2019-05-16T11:55:50.514Z,3.23
2019-05-16T11:58:08.534Z,3.47
2019-05-16T12:00:37.453Z,4.40
2019-05-16T12:03:09.356Z,3.37
2019-05-16T12:05:38.007Z,3.13
2019-05-16T12:08:07.732Z,2.80
2019-05-16T12:10:36.715Z,3.17
2019-05-16T12:13:23.756Z,3.47
2019-05-16T12:15:39.288Z,3.63
2019-05-16T12:18:08.710Z,2.80
2019-05-16T12:20:37.548Z,3.83
2019-05-16T12:23:09.249Z,4.00
2019-05-16T12:25:37.942Z,3.87
2019-05-16T12:28:08.195Z,3.10
2019-05-16T12:30:40.106Z,4.03
2019-05-16T12:33:07.492Z,3.90
2019-05-16T12:35:39.350Z,4.40
2019-05-16T12:38:08.443Z,4.40
2019-05-16T12:40:37.740Z,4.40
2019-05-16T12:43:07.732Z,4.80
2019-05-16T12:45:38.676Z,4.70
2019-05-16T12:48:07.255Z,3.97
2019-05-16T12:50:38.878Z,6.33
2019-05-16T12:53:08.283Z,5.70
2019-05-16T12:55:37.501Z,6.23
2019-05-16T12:58:13.241Z,5.40
2019-05-16T13:00:44.117Z,5.93
2019-05-16T13:03:09.787Z,5.80
2019-05-16T13:05:38.507Z,6.10
2019-05-16T13:08:07.519Z,6.20
2019-05-16T13:10:39.122Z,6.97
2019-05-16T13:13:08.006Z,6.70
2019-05-16T13:15:37.940Z,7.60
2019-05-16T13:18:08.145Z,5.70
2019-05-16T13:20:39.313Z,7.00
2019-05-16T13:23:14.550Z,8.13
2019-05-16T13:25:37.859Z,8.43
2019-05-16T13:28:08.166Z,8.60
2019-05-16T13:30:37.768Z,7.63
2019-05-16T13:33:07.195Z,11.50
2019-05-16T13:35:39.144Z,8.07
2019-05-16T13:38:08.132Z,10.97
2019-05-16T13:40:37.528Z,7.67
2019-05-16T13:43:10.425Z,10.47
2019-05-16T13:45:39.337Z,10.00
2019-05-16T13:48:08.384Z,9.10
2019-05-16T13:50:39.647Z,8.83
2019-05-16T13:53:07.992Z,7.30
2019-05-16T13:55:37.751Z,7.93
2019-05-16T13:58:07.757Z,8.37
2019-05-16T14:00:37.600Z,8.27
2019-05-16T14:03:07.344Z,9.70
2019-05-16T14:05:39.808Z,11.43
2019-05-16T14:08:08.456Z,8.00
2019-05-16T14:10:37.735Z,8.40
2019-05-16T14:13:07.491Z,8.50
2019-05-16T14:15:37.097Z,7.67
2019-05-16T14:18:07.807Z,9.20
2019-05-16T14:20:39.368Z,10.85
2019-05-16T14:23:08.812Z,7.17
2019-05-16T14:25:38.376Z,9.70
2019-05-16T14:28:07.873Z,9.53
2019-05-16T14:30:37.384Z,9.30
2019-05-16T14:33:13.896Z,7.47
2019-05-16T14:35:39.889Z,8.30
2019-05-16T14:38:08.909Z,9.80
2019-05-16T14:40:37.666Z,8.17
2019-05-16T14:43:09.444Z,7.90
2019-05-16T14:45:38.140Z,12.97
2019-05-16T14:48:07.598Z,9.00
2019-05-16T14:50:37.573Z,9.90
2019-05-16T14:53:07.313Z,9.10
2019-05-16T14:55:39.752Z,8.10
2019-05-16T14:58:08.461Z,11.27
2019-05-16T15:00:38.377Z,8.57
2019-05-16T15:03:08.189Z,8.50
2019-05-16T15:05:42.445Z,10.40
2019-05-16T15:08:08.713Z,8.47
2019-05-16T15:10:37.796Z,8.63
2019-05-16T15:13:07.850Z,9.93
2019-05-16T15:15:37.599Z,9.83
2019-05-16T15:18:08.212Z,8.17
2019-05-16T15:20:37.200Z,9.80
2019-05-16T15:23:07.662Z,11.13
2019-05-16T15:25:37.468Z,9.27
2019-05-16T15:28:07.651Z,7.97
2019-05-16T15:30:38.981Z,8.17
2019-05-16T15:33:08.672Z,7.93
2019-05-16T15:35:38.281Z,10.40
2019-05-16T15:38:08.066Z,10.10
2019-05-16T15:40:37.802Z,11.00
2019-05-16T15:43:08.154Z,8.93
2019-05-16T15:45:48.195Z,10.20
2019-05-16T15:48:17.017Z,11.20
2019-05-16T15:50:44.641Z,9.20
2019-05-16T15:53:13.367Z,10.60
2019-05-16T15:55:42.301Z,8.70
2019-05-16T15:58:11.055Z,9.77
2019-05-16T16:00:42.111Z,10.20
2019-05-16T16:03:10.862Z,10.27
2019-05-16T16:05:39.556Z,8.37
2019-05-16T16:08:08.398Z,14.37
2019-05-16T16:10:39.364Z,12.80
2019-05-16T16:13:08.702Z,11.50
2019-05-16T16:15:50.304Z,15.63
2019-05-16T16:18:09.239Z,16.70
2019-05-16T16:20:38.487Z,13.90
2019-05-16T16:23:07.256Z,13.50
2019-05-16T16:25:37.512Z,11.90
2019-05-16T16:28:09.156Z,15.83
2019-05-16T16:30:37.920Z,14.70
2019-05-16T16:33:21.321Z,13.83
2019-05-16T16:35:38.030Z,12.70
2019-05-16T16:38:07.233Z,13.80
2019-05-16T16:40:37.698Z,13.00
2019-05-16T16:43:08.019Z,14.07
2019-05-16T16:45:36.901Z,19.00
2019-05-16T16:48:07.941Z,12.30
2019-05-16T16:50:39.269Z,11.57
2019-05-16T16:53:07.989Z,15.10
2019-05-16T16:55:37.130Z,15.10
2019-05-16T16:58:09.640Z,15.63
2019-05-16T17:00:38.220Z,17.90
2019-05-16T17:03:10.347Z,21.00
2019-05-16T17:05:37.446Z,15.87
2019-05-16T17:08:09.210Z,20.60
2019-05-16T17:10:38.338Z,15.83
2019-05-16T17:13:07.187Z,14.53
2019-05-16T17:15:36.784Z,19.80
2019-05-16T17:18:06.959Z,15.00
2019-05-16T17:20:37.585Z,22.67
2019-05-16T17:23:09.140Z,19.57
2019-05-16T17:25:38.171Z,17.60
2019-05-16T17:28:07.286Z,24.20
2019-05-16T17:30:37.665Z,23.77
2019-05-16T17:33:07.621Z,19.80
2019-05-16T17:35:39.010Z,21.23
2019-05-16T17:38:07.207Z,19.90
2019-05-16T17:40:38.409Z,20.50
2019-05-16T17:43:07.711Z,22.77
2019-05-16T17:45:37.564Z,21.43
2019-05-16T17:48:29.597Z,22.43
2019-05-16T17:50:57.124Z,21.80
2019-05-16T17:53:26.665Z,24.10
2019-05-16T17:55:57.295Z,25.27
2019-05-16T17:58:27.063Z,24.97
2019-05-16T18:01:00.008Z,22.43
2019-05-16T18:03:26.554Z,19.87
2019-05-16T18:05:56.712Z,22.97
2019-05-16T18:08:25.614Z,21.73
2019-05-16T18:10:56.561Z,20.90
2019-05-16T18:13:25.182Z,23.97
2019-05-16T18:15:56.690Z,26.10
2019-05-16T18:18:26.882Z,21.83
2019-05-16T18:21:01.552Z,22.67
2019-05-16T18:23:27.480Z,18.60
2019-05-16T18:25:57.567Z,22.80
2019-05-16T18:28:26.843Z,24.53
2019-05-16T18:30:56.624Z,18.23
2019-05-16T18:33:27.580Z,24.10
2019-05-16T18:35:57.944Z,20.40
2019-05-16T18:38:26.589Z,24.63
2019-05-16T18:40:56.580Z,21.83
2019-05-16T18:43:27.143Z,16.20
2019-05-16T18:45:56.637Z,21.50
2019-05-16T18:48:27.251Z,23.00
2019-05-16T18:50:57.627Z,21.47
2019-05-16T18:53:27.103Z,20.50
2019-05-16T18:55:57.067Z,23.50
2019-05-16T18:58:26.970Z,19.90
2019-05-16T19:00:55.893Z,22.70
2019-05-16T19:03:26.855Z,18.20
2019-05-16T19:05:57.152Z,18.30
2019-05-16T19:08:27.094Z,27.20
2019-05-16T19:10:56.885Z,20.30
2019-05-16T19:13:27.763Z,17.90
2019-05-16T19:15:57.265Z,19.83
2019-05-16T19:18:26.390Z,21.40
2019-05-16T19:20:57.091Z,19.30
2019-05-16T19:23:26.907Z,23.60
2019-05-16T19:25:56.961Z,20.67
2019-05-16T19:28:28.354Z,20.23
2019-05-16T19:30:57.268Z,20.83
2019-05-16T19:33:26.176Z,20.07
2019-05-16T19:35:56.538Z,19.37
2019-05-16T19:38:26.516Z,24.93
2019-05-16T19:40:57.565Z,20.50
2019-05-16T19:43:26.656Z,23.63
2019-05-16T19:45:57.248Z,26.20
2019-05-16T19:48:26.730Z,20.13
2019-05-16T19:50:56.897Z,25.63
2019-05-16T19:53:27.117Z,22.87
2019-05-16T19:55:56.697Z,19.33
2019-05-16T19:58:26.725Z,27.60
2019-05-16T20:00:57.257Z,21.30
2019-05-16T20:03:27.249Z,21.87
2019-05-16T20:05:56.997Z,23.00
2019-05-16T20:08:26.954Z,20.23
2019-05-16T20:10:55.905Z,21.33
2019-05-16T20:13:24.619Z,21.13
2019-05-16T20:15:53.739Z,17.07
2019-05-16T20:18:22.861Z,21.30
2019-05-16T20:20:51.573Z,21.40
2019-05-16T20:23:20.281Z,24.60
2019-05-16T20:25:48.995Z,23.90
2019-05-16T20:28:18.407Z,25.07
2019-05-16T20:30:47.673Z,20.80
2019-05-16T20:33:17.982Z,27.10
2019-05-16T20:35:47.341Z,31.53
2019-05-16T20:38:17.333Z,25.93
2019-05-16T20:40:46.705Z,49.50
2019-05-16T20:43:16.831Z,75.87
2019-05-16T20:45:47.678Z,94.37
2019-05-16T20:48:18.521Z,93.00
2019-05-16T20:50:49.138Z,20.70
2019-05-16T20:53:17.758Z,21.23
2019-05-16T20:55:49.636Z,25.20
2019-05-16T20:58:16.932Z,24.07
2019-05-16T21:00:46.998Z,19.33
2019-05-16T21:03:16.543Z,14.77
2019-05-16T21:05:48.077Z,17.50
2019-05-16T21:08:17.236Z,16.87
2019-05-16T21:10:46.472Z,16.97
2019-05-16T21:13:17.154Z,18.70
2019-05-16T21:15:47.687Z,16.43
2019-05-16T21:18:16.682Z,20.83
2019-05-16T21:20:46.990Z,20.30
2019-05-16T21:23:16.658Z,27.73
2019-05-16T21:25:46.783Z,19.87
2019-05-16T21:28:19.466Z,15.57
2019-05-16T21:30:47.409Z,26.20
2019-05-16T21:33:18.703Z,19.73
2019-05-16T21:35:47.135Z,18.50
2019-05-16T21:38:16.675Z,19.17
2019-05-16T21:40:45.486Z,19.93
2019-05-16T21:43:16.654Z,21.87
2019-05-16T21:45:47.280Z,23.33
2019-05-16T21:48:16.328Z,35.43
2019-05-16T21:50:46.361Z,35.47
2019-05-16T21:53:17.569Z,23.20
2019-05-16T21:55:47.223Z,22.60
2019-05-16T21:58:16.122Z,24.43
2019-05-16T22:00:47.650Z,30.33
2019-05-16T22:03:16.731Z,24.73
2019-05-16T22:05:46.564Z,22.63
2019-05-16T22:08:16.835Z,20.43
2019-05-16T22:10:46.750Z,24.57
2019-05-16T22:13:15.510Z,22.27
2019-05-16T22:15:46.410Z,25.00
2019-05-16T22:18:16.629Z,23.60
2019-05-16T22:20:49.039Z,21.47
2019-05-16T22:23:17.387Z,23.30
2019-05-16T22:25:48.963Z,19.47
2019-05-16T22:28:17.211Z,24.93
2019-05-16T22:30:46.169Z,55.13
2019-05-16T22:33:14.778Z,95.90
2019-05-16T22:35:43.497Z,154.93
2019-05-16T22:38:12.307Z,106.37
2019-05-16T22:40:41.018Z,69.70
2019-05-16T22:43:10.241Z,38.83
2019-05-16T22:45:39.670Z,30.60
2019-05-16T22:48:08.802Z,30.50
2019-05-16T22:50:37.514Z,23.73
2019-05-16T22:53:09.162Z,18.43
2019-05-16T22:55:37.920Z,15.23
2019-05-16T22:58:07.462Z,17.73
2019-05-16T23:00:41.302Z,24.97
2019-05-16T23:03:09.449Z,16.17
2019-05-16T23:05:38.119Z,17.70
2019-05-16T23:08:09.738Z,17.63
2019-05-16T23:10:37.392Z,16.57
2019-05-16T23:13:07.548Z,13.80
2019-05-16T23:15:37.189Z,25.53
2019-05-16T23:18:07.332Z,25.77
2019-05-16T23:20:37.505Z,28.27
2019-05-16T23:23:09.101Z,27.40
2019-05-16T23:25:37.763Z,95.97
2019-05-16T23:28:07.742Z,33.83
2019-05-16T23:30:36.951Z,29.77
2019-05-16T23:33:07.221Z,65.17
2019-05-16T23:35:39.358Z,26.27
2019-05-16T23:38:18.631Z,36.40
2019-05-16T23:40:38.547Z,42.80
2019-05-16T23:43:07.824Z,34.00
2019-05-16T23:45:37.571Z,24.10
2019-05-16T23:48:10.416Z,21.47
2019-05-16T23:50:36.968Z,22.23
2019-05-16T23:53:07.264Z,30.77
2019-05-16T23:55:39.440Z,69.57
2019-05-16T23:58:08.264Z,62.87
